sensor_id;sensor_type;location;lat;lon;timestamp;temperature;humidity
76293;DHT22;67256;51.154;4.164;2023-04-03T00:01:16;7.70;61.90
76293;DHT22;67256;51.154;4.164;2023-04-03T00:03:42;7.70;62.00
76293;DHT22;67256;51.154;4.164;2023-04-03T00:06:10;7.70;61.90
76293;DHT22;67256;51.154;4.164;2023-04-03T00:08:37;7.70;61.50
76293;DHT22;67256;51.154;4.164;2023-04-03T00:11:04;7.70;61.20
76293;DHT22;67256;51.154;4.164;2023-04-03T00:13:32;7.70;60.90
76293;DHT22;67256;51.154;4.164;2023-04-03T00:15:58;7.70;61.30
76293;DHT22;67256;51.154;4.164;2023-04-03T00:18:24;7.60;61.50
76293;DHT22;67256;51.154;4.164;2023-04-03T00:20:50;7.60;61.60
76293;DHT22;67256;51.154;4.164;2023-04-03T00:23:16;7.60;61.60
76293;DHT22;67256;51.154;4.164;2023-04-03T00:25:43;7.60;61.90
76293;DHT22;67256;51.154;4.164;2023-04-03T00:28:10;7.60;61.60
76293;DHT22;67256;51.154;4.164;2023-04-03T00:30:36;7.60;61.80
76293;DHT22;67256;51.154;4.164;2023-04-03T00:33:02;7.60;61.60
76293;DHT22;67256;51.154;4.164;2023-04-03T00:35:29;7.60;61.70
76293;DHT22;67256;51.154;4.164;2023-04-03T00:37:56;7.60;61.70
76293;DHT22;67256;51.154;4.164;2023-04-03T00:40:26;7.60;61.50
76293;DHT22;67256;51.154;4.164;2023-04-03T00:42:57;7.60;61.40
76293;DHT22;67256;51.154;4.164;2023-04-03T00:45:28;7.50;61.40
76293;DHT22;67256;51.154;4.164;2023-04-03T00:47:54;7.60;61.30
76293;DHT22;67256;51.154;4.164;2023-04-03T00:50:21;7.60;61.30
76293;DHT22;67256;51.154;4.164;2023-04-03T00:52:47;7.60;61.30
76293;DHT22;67256;51.154;4.164;2023-04-03T00:55:15;7.50;61.30
76293;DHT22;67256;51.154;4.164;2023-04-03T00:57:42;7.60;61.50
76293;DHT22;67256;51.154;4.164;2023-04-03T01:00:11;7.60;61.50
76293;DHT22;67256;51.154;4.164;2023-04-03T01:02:38;7.60;61.30
76293;DHT22;67256;51.154;4.164;2023-04-03T01:05:07;7.40;61.80
76293;DHT22;67256;51.154;4.164;2023-04-03T01:07:34;7.40;61.70
76293;DHT22;67256;51.154;4.164;2023-04-03T01:10:05;7.50;61.60
76293;DHT22;67256;51.154;4.164;2023-04-03T01:12:34;7.40;61.70
76293;DHT22;67256;51.154;4.164;2023-04-03T01:15:12;7.30;62.20
76293;DHT22;67256;51.154;4.164;2023-04-03T01:17:45;7.40;62.20
76293;DHT22;67256;51.154;4.164;2023-04-03T01:25:21;7.40;61.90
76293;DHT22;67256;51.154;4.164;2023-04-03T01:27:47;7.50;62.20
76293;DHT22;67256;51.154;4.164;2023-04-03T01:30:16;7.40;62.60
76293;DHT22;67256;51.154;4.164;2023-04-03T01:32:42;7.30;63.20
76293;DHT22;67256;51.154;4.164;2023-04-03T01:35:09;7.20;63.30
76293;DHT22;67256;51.154;4.164;2023-04-03T01:37:35;7.20;63.10
76293;DHT22;67256;51.154;4.164;2023-04-03T01:40:01;7.30;63.10
76293;DHT22;67256;51.154;4.164;2023-04-03T01:42:27;7.30;62.90
76293;DHT22;67256;51.154;4.164;2023-04-03T01:44:54;7.40;62.70
76293;DHT22;67256;51.154;4.164;2023-04-03T01:47:20;7.30;62.90
76293;DHT22;67256;51.154;4.164;2023-04-03T01:49:46;7.30;63.00
76293;DHT22;67256;51.154;4.164;2023-04-03T01:52:12;7.30;62.90
76293;DHT22;67256;51.154;4.164;2023-04-03T01:54:38;7.30;63.00
76293;DHT22;67256;51.154;4.164;2023-04-03T01:57:04;7.40;62.90
76293;DHT22;67256;51.154;4.164;2023-04-03T01:59:30;7.40;62.50
76293;DHT22;67256;51.154;4.164;2023-04-03T02:01:56;7.40;62.40
76293;DHT22;67256;51.154;4.164;2023-04-03T02:04:22;7.40;62.40
76293;DHT22;67256;51.154;4.164;2023-04-03T02:06:48;7.40;62.60
76293;DHT22;67256;51.154;4.164;2023-04-03T02:09:14;7.30;62.40
76293;DHT22;67256;51.154;4.164;2023-04-03T02:11:40;7.30;62.40
76293;DHT22;67256;51.154;4.164;2023-04-03T02:14:07;7.10;63.10
76293;DHT22;67256;51.154;4.164;2023-04-03T02:16:33;7.10;63.00
76293;DHT22;67256;51.154;4.164;2023-04-03T02:18:59;7.30;62.60
76293;DHT22;67256;51.154;4.164;2023-04-03T02:21:25;7.20;62.30
76293;DHT22;67256;51.154;4.164;2023-04-03T02:23:51;7.30;62.20
76293;DHT22;67256;51.154;4.164;2023-04-03T02:26:17;7.30;62.20
76293;DHT22;67256;51.154;4.164;2023-04-03T02:28:43;7.30;61.90
76293;DHT22;67256;51.154;4.164;2023-04-03T02:31:10;7.30;61.90
76293;DHT22;67256;51.154;4.164;2023-04-03T02:33:37;7.30;61.90
76293;DHT22;67256;51.154;4.164;2023-04-03T02:36:05;7.30;61.90
76293;DHT22;67256;51.154;4.164;2023-04-03T02:38:32;7.30;61.80
76293;DHT22;67256;51.154;4.164;2023-04-03T02:41:03;7.20;61.80
76293;DHT22;67256;51.154;4.164;2023-04-03T02:43:30;7.20;61.90
76293;DHT22;67256;51.154;4.164;2023-04-03T02:45:57;7.20;62.10
76293;DHT22;67256;51.154;4.164;2023-04-03T02:48:24;7.10;62.20
76293;DHT22;67256;51.154;4.164;2023-04-03T02:50:51;7.10;62.40
76293;DHT22;67256;51.154;4.164;2023-04-03T02:53:17;7.00;62.40
76293;DHT22;67256;51.154;4.164;2023-04-03T02:55:44;7.00;62.40
76293;DHT22;67256;51.154;4.164;2023-04-03T02:58:10;7.10;62.30
76293;DHT22;67256;51.154;4.164;2023-04-03T03:00:37;7.10;62.00
76293;DHT22;67256;51.154;4.164;2023-04-03T03:03:03;7.10;61.90
76293;DHT22;67256;51.154;4.164;2023-04-03T03:05:30;7.10;61.80
76293;DHT22;67256;51.154;4.164;2023-04-03T03:07:56;7.10;61.80
76293;DHT22;67256;51.154;4.164;2023-04-03T03:10:22;7.10;61.60
76293;DHT22;67256;51.154;4.164;2023-04-03T03:12:49;7.20;61.60
76293;DHT22;67256;51.154;4.164;2023-04-03T03:15:15;7.10;61.70
76293;DHT22;67256;51.154;4.164;2023-04-03T03:17:43;7.10;61.50
76293;DHT22;67256;51.154;4.164;2023-04-03T03:20:09;7.10;61.50
76293;DHT22;67256;51.154;4.164;2023-04-03T03:22:35;7.00;61.60
76293;DHT22;67256;51.154;4.164;2023-04-03T03:25:02;7.00;61.40
76293;DHT22;67256;51.154;4.164;2023-04-03T03:27:28;7.00;61.80
76293;DHT22;67256;51.154;4.164;2023-04-03T03:29:54;7.00;62.00
76293;DHT22;67256;51.154;4.164;2023-04-03T03:32:20;7.00;62.00
76293;DHT22;67256;51.154;4.164;2023-04-03T03:34:45;7.00;61.90
76293;DHT22;67256;51.154;4.164;2023-04-03T03:37:11;6.90;62.00
76293;DHT22;67256;51.154;4.164;2023-04-03T03:39:37;6.90;62.10
76293;DHT22;67256;51.154;4.164;2023-04-03T03:42:03;6.90;61.80
76293;DHT22;67256;51.154;4.164;2023-04-03T03:44:29;6.90;62.00
76293;DHT22;67256;51.154;4.164;2023-04-03T03:46:55;6.90;62.30
76293;DHT22;67256;51.154;4.164;2023-04-03T03:49:21;6.80;62.20
76293;DHT22;67256;51.154;4.164;2023-04-03T03:51:49;6.80;62.30
76293;DHT22;67256;51.154;4.164;2023-04-03T03:54:15;6.80;62.60
76293;DHT22;67256;51.154;4.164;2023-04-03T03:56:41;6.70;62.60
76293;DHT22;67256;51.154;4.164;2023-04-03T03:59:07;6.70;62.80
76293;DHT22;67256;51.154;4.164;2023-04-03T04:01:33;6.70;63.00
76293;DHT22;67256;51.154;4.164;2023-04-03T04:03:59;6.60;62.60
76293;DHT22;67256;51.154;4.164;2023-04-03T04:06:25;6.60;62.40
76293;DHT22;67256;51.154;4.164;2023-04-03T04:08:51;6.60;62.80
76293;DHT22;67256;51.154;4.164;2023-04-03T04:11:17;6.60;62.80
76293;DHT22;67256;51.154;4.164;2023-04-03T04:13:43;6.50;63.10
76293;DHT22;67256;51.154;4.164;2023-04-03T04:16:09;6.50;63.00
76293;DHT22;67256;51.154;4.164;2023-04-03T04:18:35;6.50;63.10
76293;DHT22;67256;51.154;4.164;2023-04-03T04:21:01;6.50;62.90
76293;DHT22;67256;51.154;4.164;2023-04-03T04:23:27;6.40;63.00
76293;DHT22;67256;51.154;4.164;2023-04-03T04:25:53;6.40;63.20
76293;DHT22;67256;51.154;4.164;2023-04-03T04:28:19;6.40;63.20
76293;DHT22;67256;51.154;4.164;2023-04-03T04:30:45;6.40;63.60
76293;DHT22;67256;51.154;4.164;2023-04-03T04:33:11;6.40;63.70
76293;DHT22;67256;51.154;4.164;2023-04-03T04:35:36;6.30;64.50
76293;DHT22;67256;51.154;4.164;2023-04-03T04:38:04;6.40;64.40
76293;DHT22;67256;51.154;4.164;2023-04-03T04:40:30;6.40;64.40
76293;DHT22;67256;51.154;4.164;2023-04-03T04:42:56;6.30;64.70
76293;DHT22;67256;51.154;4.164;2023-04-03T04:45:23;6.40;64.80
76293;DHT22;67256;51.154;4.164;2023-04-03T04:47:49;6.40;64.20
76293;DHT22;67256;51.154;4.164;2023-04-03T04:50:18;6.40;64.00
76293;DHT22;67256;51.154;4.164;2023-04-03T04:52:44;6.40;64.20
76293;DHT22;67256;51.154;4.164;2023-04-03T04:55:11;6.40;64.40
76293;DHT22;67256;51.154;4.164;2023-04-03T04:57:37;6.40;64.10
76293;DHT22;67256;51.154;4.164;2023-04-03T05:00:04;6.40;64.20
76293;DHT22;67256;51.154;4.164;2023-04-03T05:02:30;6.40;64.30
76293;DHT22;67256;51.154;4.164;2023-04-03T05:04:57;6.40;64.40
76293;DHT22;67256;51.154;4.164;2023-04-03T05:07:23;6.40;64.40
76293;DHT22;67256;51.154;4.164;2023-04-03T05:09:49;6.40;64.50
76293;DHT22;67256;51.154;4.164;2023-04-03T05:12:16;6.40;64.30
76293;DHT22;67256;51.154;4.164;2023-04-03T05:14:42;6.40;64.40
76293;DHT22;67256;51.154;4.164;2023-04-03T05:17:08;6.30;64.10
76293;DHT22;67256;51.154;4.164;2023-04-03T05:19:34;6.30;64.20
76293;DHT22;67256;51.154;4.164;2023-04-03T05:22:00;6.30;64.10
76293;DHT22;67256;51.154;4.164;2023-04-03T05:24:26;6.30;63.90
76293;DHT22;67256;51.154;4.164;2023-04-03T05:26:52;6.20;64.10
76293;DHT22;67256;51.154;4.164;2023-04-03T05:29:18;6.20;64.30
76293;DHT22;67256;51.154;4.164;2023-04-03T05:31:43;6.20;65.00
76293;DHT22;67256;51.154;4.164;2023-04-03T05:34:09;6.20;65.00
76293;DHT22;67256;51.154;4.164;2023-04-03T05:36:35;6.20;65.20
76293;DHT22;67256;51.154;4.164;2023-04-03T05:39:02;6.20;65.60
76293;DHT22;67256;51.154;4.164;2023-04-03T05:41:29;6.20;65.90
76293;DHT22;67256;51.154;4.164;2023-04-03T05:43:55;6.20;65.70
76293;DHT22;67256;51.154;4.164;2023-04-03T05:46:21;6.30;65.70
76293;DHT22;67256;51.154;4.164;2023-04-03T05:48:47;6.20;65.80
76293;DHT22;67256;51.154;4.164;2023-04-03T05:51:18;6.20;66.30
76293;DHT22;67256;51.154;4.164;2023-04-03T05:53:45;6.30;66.20
76293;DHT22;67256;51.154;4.164;2023-04-03T05:56:12;6.30;66.10
76293;DHT22;67256;51.154;4.164;2023-04-03T05:58:38;6.30;66.60
76293;DHT22;67256;51.154;4.164;2023-04-03T06:01:04;6.30;66.80
76293;DHT22;67256;51.154;4.164;2023-04-03T06:03:31;6.20;67.00
76293;DHT22;67256;51.154;4.164;2023-04-03T06:05:57;6.30;67.00
76293;DHT22;67256;51.154;4.164;2023-04-03T06:08:23;6.20;67.30
76293;DHT22;67256;51.154;4.164;2023-04-03T06:10:49;6.30;67.60
76293;DHT22;67256;51.154;4.164;2023-04-03T06:13:17;6.20;67.90
76293;DHT22;67256;51.154;4.164;2023-04-03T06:15:43;6.30;67.90
76293;DHT22;67256;51.154;4.164;2023-04-03T06:18:08;6.30;67.90
76293;DHT22;67256;51.154;4.164;2023-04-03T06:20:35;6.40;67.70
76293;DHT22;67256;51.154;4.164;2023-04-03T06:23:01;6.40;67.80
76293;DHT22;67256;51.154;4.164;2023-04-03T06:25:27;6.30;67.90
76293;DHT22;67256;51.154;4.164;2023-04-03T06:27:53;6.30;67.90
76293;DHT22;67256;51.154;4.164;2023-04-03T06:30:21;6.40;68.00
76293;DHT22;67256;51.154;4.164;2023-04-03T06:32:48;6.40;68.60
76293;DHT22;67256;51.154;4.164;2023-04-03T06:35:13;6.30;68.40
76293;DHT22;67256;51.154;4.164;2023-04-03T06:37:40;6.20;68.40
76293;DHT22;67256;51.154;4.164;2023-04-03T06:40:06;6.20;68.70
76293;DHT22;67256;51.154;4.164;2023-04-03T06:42:32;6.00;69.20
76293;DHT22;67256;51.154;4.164;2023-04-03T06:44:58;6.00;69.20
76293;DHT22;67256;51.154;4.164;2023-04-03T06:47:24;6.00;69.20
76293;DHT22;67256;51.154;4.164;2023-04-03T06:49:50;6.10;69.30
76293;DHT22;67256;51.154;4.164;2023-04-03T06:52:16;6.10;69.20
76293;DHT22;67256;51.154;4.164;2023-04-03T06:54:42;6.10;69.30
76293;DHT22;67256;51.154;4.164;2023-04-03T06:57:08;6.00;69.30
76293;DHT22;67256;51.154;4.164;2023-04-03T06:59:34;6.00;69.70
76293;DHT22;67256;51.154;4.164;2023-04-03T07:02:00;6.00;70.00
76293;DHT22;67256;51.154;4.164;2023-04-03T07:04:27;6.00;69.70
76293;DHT22;67256;51.154;4.164;2023-04-03T07:06:52;5.90;70.40
76293;DHT22;67256;51.154;4.164;2023-04-03T07:09:18;5.90;70.50
76293;DHT22;67256;51.154;4.164;2023-04-03T07:11:45;5.80;70.40
76293;DHT22;67256;51.154;4.164;2023-04-03T07:14:11;5.90;70.20
76293;DHT22;67256;51.154;4.164;2023-04-03T07:16:37;6.10;69.70
76293;DHT22;67256;51.154;4.164;2023-04-03T07:19:04;6.10;69.00
76293;DHT22;67256;51.154;4.164;2023-04-03T07:21:30;6.00;69.70
76293;DHT22;67256;51.154;4.164;2023-04-03T07:23:56;6.00;69.70
76293;DHT22;67256;51.154;4.164;2023-04-03T07:26:22;6.10;69.00
76293;DHT22;67256;51.154;4.164;2023-04-03T07:28:48;6.20;67.50
76293;DHT22;67256;51.154;4.164;2023-04-03T07:31:16;6.20;67.30
76293;DHT22;67256;51.154;4.164;2023-04-03T07:33:43;6.20;67.10
76293;DHT22;67256;51.154;4.164;2023-04-03T07:36:10;6.20;66.20
76293;DHT22;67256;51.154;4.164;2023-04-03T07:38:39;6.20;65.50
76293;DHT22;67256;51.154;4.164;2023-04-03T07:41:06;6.10;66.50
76293;DHT22;67256;51.154;4.164;2023-04-03T07:43:32;6.00;66.80
76293;DHT22;67256;51.154;4.164;2023-04-03T07:46:00;6.00;66.50
76293;DHT22;67256;51.154;4.164;2023-04-03T07:48:26;6.00;66.80
76293;DHT22;67256;51.154;4.164;2023-04-03T07:50:52;6.00;66.80
76293;DHT22;67256;51.154;4.164;2023-04-03T07:53:19;6.20;66.50
76293;DHT22;67256;51.154;4.164;2023-04-03T07:55:49;6.20;66.10
76293;DHT22;67256;51.154;4.164;2023-04-03T07:58:18;6.30;66.20
76293;DHT22;67256;51.154;4.164;2023-04-03T08:00:44;6.40;66.00
76293;DHT22;67256;51.154;4.164;2023-04-03T08:03:11;6.60;66.00
76293;DHT22;67256;51.154;4.164;2023-04-03T08:05:45;6.60;66.20
76293;DHT22;67256;51.154;4.164;2023-04-03T08:08:13;6.60;65.80
76293;DHT22;67256;51.154;4.164;2023-04-03T08:10:39;6.50;65.70
76293;DHT22;67256;51.154;4.164;2023-04-03T08:13:06;6.50;66.40
76293;DHT22;67256;51.154;4.164;2023-04-03T08:15:32;6.60;66.10
76293;DHT22;67256;51.154;4.164;2023-04-03T08:17:58;6.60;65.80
76293;DHT22;67256;51.154;4.164;2023-04-03T08:20:24;6.50;65.00
76293;DHT22;67256;51.154;4.164;2023-04-03T08:22:51;6.50;65.80
76293;DHT22;67256;51.154;4.164;2023-04-03T08:25:17;6.60;65.50
76293;DHT22;67256;51.154;4.164;2023-04-03T08:27:43;6.70;65.50
76293;DHT22;67256;51.154;4.164;2023-04-03T08:30:10;6.50;65.80
76293;DHT22;67256;51.154;4.164;2023-04-03T08:32:36;6.50;65.70
76293;DHT22;67256;51.154;4.164;2023-04-03T08:35:03;6.60;63.70
76293;DHT22;67256;51.154;4.164;2023-04-03T08:37:30;6.60;63.40
76293;DHT22;67256;51.154;4.164;2023-04-03T08:39:56;6.60;63.80
76293;DHT22;67256;51.154;4.164;2023-04-03T08:42:36;6.60;63.90
76293;DHT22;67256;51.154;4.164;2023-04-03T08:45:17;6.70;64.00
76293;DHT22;67256;51.154;4.164;2023-04-03T08:47:47;6.70;63.10
76293;DHT22;67256;51.154;4.164;2023-04-03T08:50:20;6.70;64.00
76293;DHT22;67256;51.154;4.164;2023-04-03T08:52:59;6.90;64.10
76293;DHT22;67256;51.154;4.164;2023-04-03T08:55:39;7.00;63.80
76293;DHT22;67256;51.154;4.164;2023-04-03T08:58:15;7.10;63.30
76293;DHT22;67256;51.154;4.164;2023-04-03T09:00:48;7.10;62.40
76293;DHT22;67256;51.154;4.164;2023-04-03T09:03:17;7.00;61.10
76293;DHT22;67256;51.154;4.164;2023-04-03T09:14:15;6.90;60.40
76293;DHT22;67256;51.154;4.164;2023-04-03T09:16:48;6.90;60.70
76293;DHT22;67256;51.154;4.164;2023-04-03T09:21:48;6.80;60.70
76293;DHT22;67256;51.154;4.164;2023-04-03T09:24:15;6.90;59.70
76293;DHT22;67256;51.154;4.164;2023-04-03T09:26:46;6.80;59.40
76293;DHT22;67256;51.154;4.164;2023-04-03T09:29:22;6.70;59.90
76293;DHT22;67256;51.154;4.164;2023-04-03T09:31:52;6.80;59.80
76293;DHT22;67256;51.154;4.164;2023-04-03T09:34:36;6.90;57.60
76293;DHT22;67256;51.154;4.164;2023-04-03T09:37:05;7.00;58.80
76293;DHT22;67256;51.154;4.164;2023-04-03T09:39:52;7.00;57.10
76293;DHT22;67256;51.154;4.164;2023-04-03T09:42:23;7.00;57.60
76293;DHT22;67256;51.154;4.164;2023-04-03T09:45:00;7.10;56.60
76293;DHT22;67256;51.154;4.164;2023-04-03T09:47:34;7.00;56.30
76293;DHT22;67256;51.154;4.164;2023-04-03T09:52:47;7.00;56.40
76293;DHT22;67256;51.154;4.164;2023-04-03T09:55:19;7.10;56.90
76293;DHT22;67256;51.154;4.164;2023-04-03T09:57:47;7.00;57.00
76293;DHT22;67256;51.154;4.164;2023-04-03T10:00:35;7.00;57.60
76293;DHT22;67256;51.154;4.164;2023-04-03T10:03:02;7.10;56.20
76293;DHT22;67256;51.154;4.164;2023-04-03T10:05:38;7.20;56.50
76293;DHT22;67256;51.154;4.164;2023-04-03T10:10:43;7.30;56.90
76293;DHT22;67256;51.154;4.164;2023-04-03T10:13:20;7.30;56.30
76293;DHT22;67256;51.154;4.164;2023-04-03T10:16:06;7.40;56.40
76293;DHT22;67256;51.154;4.164;2023-04-03T10:18:42;7.40;56.30
76293;DHT22;67256;51.154;4.164;2023-04-03T10:21:35;7.30;56.30
76293;DHT22;67256;51.154;4.164;2023-04-03T10:24:11;7.40;56.10
76293;DHT22;67256;51.154;4.164;2023-04-03T10:29:26;7.60;53.50
76293;DHT22;67256;51.154;4.164;2023-04-03T10:34:43;7.60;52.00
76293;DHT22;67256;51.154;4.164;2023-04-03T10:43:33;7.80;51.60
76293;DHT22;67256;51.154;4.164;2023-04-03T10:52:24;8.10;53.20
76293;DHT22;67256;51.154;4.164;2023-04-03T10:57:47;8.00;48.10
76293;DHT22;67256;51.154;4.164;2023-04-03T11:00:17;8.00;49.80
76293;DHT22;67256;51.154;4.164;2023-04-03T11:03:05;8.00;48.70
76293;DHT22;67256;51.154;4.164;2023-04-03T11:05:45;8.00;52.20
76293;DHT22;67256;51.154;4.164;2023-04-03T11:11:08;7.90;51.00
76293;DHT22;67256;51.154;4.164;2023-04-03T11:16:15;7.90;49.60
76293;DHT22;67256;51.154;4.164;2023-04-03T11:18:52;7.80;50.30
76293;DHT22;67256;51.154;4.164;2023-04-03T11:23:57;7.80;48.00
76293;DHT22;67256;51.154;4.164;2023-04-03T11:26:29;7.80;49.10
76293;DHT22;67256;51.154;4.164;2023-04-03T11:29:03;7.90;49.90
76293;DHT22;67256;51.154;4.164;2023-04-03T11:31:38;8.00;48.90
76293;DHT22;67256;51.154;4.164;2023-04-03T11:36:58;8.20;47.10
76293;DHT22;67256;51.154;4.164;2023-04-03T11:42:24;8.20;48.30
76293;DHT22;67256;51.154;4.164;2023-04-03T11:47:57;8.20;46.80
76293;DHT22;67256;51.154;4.164;2023-04-03T11:50:43;8.20;47.50
76293;DHT22;67256;51.154;4.164;2023-04-03T11:55:45;8.30;44.60
76293;DHT22;67256;51.154;4.164;2023-04-03T11:58:13;8.30;44.60
76293;DHT22;67256;51.154;4.164;2023-04-03T12:05:54;8.40;42.00
76293;DHT22;67256;51.154;4.164;2023-04-03T12:08:50;8.40;41.00
76293;DHT22;67256;51.154;4.164;2023-04-03T12:11:15;8.30;42.00
76293;DHT22;67256;51.154;4.164;2023-04-03T12:16:22;8.30;42.00
76293;DHT22;67256;51.154;4.164;2023-04-03T12:21:16;8.50;41.80
76293;DHT22;67256;51.154;4.164;2023-04-03T12:29:34;8.40;40.40
76293;DHT22;67256;51.154;4.164;2023-04-03T12:35:37;8.50;38.00
76293;DHT22;67256;51.154;4.164;2023-04-03T12:47:31;8.70;37.10
76293;DHT22;67256;51.154;4.164;2023-04-03T12:49:56;8.60;38.10
76293;DHT22;67256;51.154;4.164;2023-04-03T12:55:00;8.60;37.20
76293;DHT22;67256;51.154;4.164;2023-04-03T12:57:30;8.60;38.50
76293;DHT22;67256;51.154;4.164;2023-04-03T12:59:56;8.70;37.90
76293;DHT22;67256;51.154;4.164;2023-04-03T13:02:29;8.70;38.40
76293;DHT22;67256;51.154;4.164;2023-04-03T13:04:58;8.70;36.90
76293;DHT22;67256;51.154;4.164;2023-04-03T13:07:29;8.70;38.10
76293;DHT22;67256;51.154;4.164;2023-04-03T13:12:33;8.60;36.70
76293;DHT22;67256;51.154;4.164;2023-04-03T13:15:10;8.70;37.20
76293;DHT22;67256;51.154;4.164;2023-04-03T13:17:42;8.70;38.90
76293;DHT22;67256;51.154;4.164;2023-04-03T13:20:19;8.80;36.10
76293;DHT22;67256;51.154;4.164;2023-04-03T13:22:53;8.70;35.70
76293;DHT22;67256;51.154;4.164;2023-04-03T13:25:23;8.70;36.40
76293;DHT22;67256;51.154;4.164;2023-04-03T13:27:50;8.80;36.50
76293;DHT22;67256;51.154;4.164;2023-04-03T13:30:37;8.80;36.50
76293;DHT22;67256;51.154;4.164;2023-04-03T13:33:06;8.70;35.30
76293;DHT22;67256;51.154;4.164;2023-04-03T13:35:44;8.70;36.50
76293;DHT22;67256;51.154;4.164;2023-04-03T13:41:20;8.70;35.30
76293;DHT22;67256;51.154;4.164;2023-04-03T13:43:46;8.80;37.00
76293;DHT22;67256;51.154;4.164;2023-04-03T13:48:48;8.70;36.00
76293;DHT22;67256;51.154;4.164;2023-04-03T13:53:51;8.80;36.60
76293;DHT22;67256;51.154;4.164;2023-04-03T13:56:24;8.80;36.90
76293;DHT22;67256;51.154;4.164;2023-04-03T14:01:24;8.90;37.90
76293;DHT22;67256;51.154;4.164;2023-04-03T14:03:56;9.00;36.90
76293;DHT22;67256;51.154;4.164;2023-04-03T14:06:23;9.10;34.80
76293;DHT22;67256;51.154;4.164;2023-04-03T14:08:50;9.10;36.60
76293;DHT22;67256;51.154;4.164;2023-04-03T14:11:28;9.10;35.90
76293;DHT22;67256;51.154;4.164;2023-04-03T14:13:57;9.20;35.30
76293;DHT22;67256;51.154;4.164;2023-04-03T14:16:27;9.20;36.40
76293;DHT22;67256;51.154;4.164;2023-04-03T14:18:53;9.20;37.20
76293;DHT22;67256;51.154;4.164;2023-04-03T14:21:19;9.20;38.20
76293;DHT22;67256;51.154;4.164;2023-04-03T14:23:46;9.20;36.60
76293;DHT22;67256;51.154;4.164;2023-04-03T14:26:23;9.40;37.30
76293;DHT22;67256;51.154;4.164;2023-04-03T14:28:52;9.30;36.20
76293;DHT22;67256;51.154;4.164;2023-04-03T14:31:19;9.30;36.90
76293;DHT22;67256;51.154;4.164;2023-04-03T14:33:46;9.30;35.20
76293;DHT22;67256;51.154;4.164;2023-04-03T14:36:26;9.40;35.00
76293;DHT22;67256;51.154;4.164;2023-04-03T14:38:54;9.40;35.20
76293;DHT22;67256;51.154;4.164;2023-04-03T14:41:22;9.30;35.50
76293;DHT22;67256;51.154;4.164;2023-04-03T14:43:49;9.20;34.60
76293;DHT22;67256;51.154;4.164;2023-04-03T14:48:50;9.20;36.40
76293;DHT22;67256;51.154;4.164;2023-04-03T14:51:17;9.20;35.80
76293;DHT22;67256;51.154;4.164;2023-04-03T14:53:44;9.30;36.60
76293;DHT22;67256;51.154;4.164;2023-04-03T14:56:26;9.40;37.20
76293;DHT22;67256;51.154;4.164;2023-04-03T14:59:01;9.30;34.20
76293;DHT22;67256;51.154;4.164;2023-04-03T15:01:27;9.30;35.30
76293;DHT22;67256;51.154;4.164;2023-04-03T15:03:54;9.40;35.30
76293;DHT22;67256;51.154;4.164;2023-04-03T15:06:20;9.40;35.50
76293;DHT22;67256;51.154;4.164;2023-04-03T15:08:47;9.40;35.20
76293;DHT22;67256;51.154;4.164;2023-04-03T15:11:14;9.50;36.60
76293;DHT22;67256;51.154;4.164;2023-04-03T15:13:40;9.50;35.50
76293;DHT22;67256;51.154;4.164;2023-04-03T15:16:21;9.50;33.10
76293;DHT22;67256;51.154;4.164;2023-04-03T15:18:47;9.40;33.60
76293;DHT22;67256;51.154;4.164;2023-04-03T15:21:13;9.50;35.20
76293;DHT22;67256;51.154;4.164;2023-04-03T15:23:39;9.40;35.60
76293;DHT22;67256;51.154;4.164;2023-04-03T15:26:06;9.50;35.60
76293;DHT22;67256;51.154;4.164;2023-04-03T15:28:40;9.50;36.70
76293;DHT22;67256;51.154;4.164;2023-04-03T15:31:07;9.50;34.00
76293;DHT22;67256;51.154;4.164;2023-04-03T15:33:34;9.50;34.00
76293;DHT22;67256;51.154;4.164;2023-04-03T15:36:01;9.60;35.10
76293;DHT22;67256;51.154;4.164;2023-04-03T15:38:27;9.60;36.00
76293;DHT22;67256;51.154;4.164;2023-04-03T15:40:54;9.70;35.30
76293;DHT22;67256;51.154;4.164;2023-04-03T15:43:21;9.70;34.60
76293;DHT22;67256;51.154;4.164;2023-04-03T15:45:48;9.70;33.30
76293;DHT22;67256;51.154;4.164;2023-04-03T15:48:14;9.70;33.80
76293;DHT22;67256;51.154;4.164;2023-04-03T15:50:40;9.60;34.20
76293;DHT22;67256;51.154;4.164;2023-04-03T15:53:07;9.50;34.70
76293;DHT22;67256;51.154;4.164;2023-04-03T15:55:35;9.50;35.10
76293;DHT22;67256;51.154;4.164;2023-04-03T15:58:01;9.50;35.30
76293;DHT22;67256;51.154;4.164;2023-04-03T16:00:29;9.60;34.30
76293;DHT22;67256;51.154;4.164;2023-04-03T16:03:00;9.60;33.80
76293;DHT22;67256;51.154;4.164;2023-04-03T16:05:30;9.60;33.00
76293;DHT22;67256;51.154;4.164;2023-04-03T16:07:58;9.60;33.90
76293;DHT22;67256;51.154;4.164;2023-04-03T16:10:25;9.70;33.80
76293;DHT22;67256;51.154;4.164;2023-04-03T16:12:51;9.70;33.90
76293;DHT22;67256;51.154;4.164;2023-04-03T16:15:17;9.70;33.60
76293;DHT22;67256;51.154;4.164;2023-04-03T16:17:43;9.70;33.50
76293;DHT22;67256;51.154;4.164;2023-04-03T16:20:11;9.70;34.60
76293;DHT22;67256;51.154;4.164;2023-04-03T16:22:38;9.60;34.90
76293;DHT22;67256;51.154;4.164;2023-04-03T16:25:06;9.60;36.10
76293;DHT22;67256;51.154;4.164;2023-04-03T16:27:32;9.50;35.80
76293;DHT22;67256;51.154;4.164;2023-04-03T16:29:58;9.50;35.30
76293;DHT22;67256;51.154;4.164;2023-04-03T16:32:26;9.40;35.70
76293;DHT22;67256;51.154;4.164;2023-04-03T16:34:53;9.40;35.70
76293;DHT22;67256;51.154;4.164;2023-04-03T16:37:18;9.40;36.20
76293;DHT22;67256;51.154;4.164;2023-04-03T16:39:44;9.40;35.00
76293;DHT22;67256;51.154;4.164;2023-04-03T16:42:10;9.40;35.20
76293;DHT22;67256;51.154;4.164;2023-04-03T16:44:37;9.40;36.10
76293;DHT22;67256;51.154;4.164;2023-04-03T16:47:03;9.40;35.90
76293;DHT22;67256;51.154;4.164;2023-04-03T16:49:29;9.50;37.00
76293;DHT22;67256;51.154;4.164;2023-04-03T16:51:59;9.60;37.40
76293;DHT22;67256;51.154;4.164;2023-04-03T16:54:26;9.60;37.40
76293;DHT22;67256;51.154;4.164;2023-04-03T16:56:52;9.60;37.60
76293;DHT22;67256;51.154;4.164;2023-04-03T16:59:17;9.50;37.30
76293;DHT22;67256;51.154;4.164;2023-04-03T17:01:43;9.50;37.30
76293;DHT22;67256;51.154;4.164;2023-04-03T17:04:09;9.50;37.30
76293;DHT22;67256;51.154;4.164;2023-04-03T17:06:35;9.50;38.10
76293;DHT22;67256;51.154;4.164;2023-04-03T17:09:01;9.50;38.30
76293;DHT22;67256;51.154;4.164;2023-04-03T17:11:28;9.50;38.70
76293;DHT22;67256;51.154;4.164;2023-04-03T17:13:54;9.40;38.50
76293;DHT22;67256;51.154;4.164;2023-04-03T17:16:20;9.40;38.70
76293;DHT22;67256;51.154;4.164;2023-04-03T17:18:47;9.40;38.60
76293;DHT22;67256;51.154;4.164;2023-04-03T17:21:15;9.30;38.30
76293;DHT22;67256;51.154;4.164;2023-04-03T17:23:44;9.30;38.60
76293;DHT22;67256;51.154;4.164;2023-04-03T17:26:11;9.30;38.50
76293;DHT22;67256;51.154;4.164;2023-04-03T17:28:36;9.30;38.50
76293;DHT22;67256;51.154;4.164;2023-04-03T17:31:05;9.20;39.20
76293;DHT22;67256;51.154;4.164;2023-04-03T17:33:31;9.30;39.50
76293;DHT22;67256;51.154;4.164;2023-04-03T17:35:59;9.20;39.70
76293;DHT22;67256;51.154;4.164;2023-04-03T17:38:28;9.30;40.30
76293;DHT22;67256;51.154;4.164;2023-04-03T17:40:58;9.30;40.60